createdAt,value
2019-06-28T03:51:51.096Z,352
2019-06-28T03:52:52.497Z,360
2019-06-28T03:53:53.900Z,372
2019-06-28T03:54:55.360Z,384
2019-06-28T03:55:56.895Z,396
2019-06-28T03:56:58.295Z,404
2019-06-28T03:57:59.708Z,412
2019-06-28T03:59:01.169Z,424
2019-06-28T04:00:02.557Z,436
2019-06-28T04:01:03.979Z,448
2019-06-28T04:02:05.447Z,456
2019-06-28T04:03:06.850Z,468
2019-06-28T04:04:08.253Z,480
2019-06-28T04:05:09.662Z,492
2019-06-28T04:06:11.101Z,512
2019-06-28T04:07:12.498Z,524
2019-06-28T04:08:13.958Z,536
2019-06-28T04:09:15.416Z,544
2019-06-28T04:10:16.823Z,560
2019-06-28T04:11:18.227Z,572
2019-06-28T04:12:19.742Z,600
2019-06-28T04:13:21.145Z,628
2019-06-28T04:14:22.604Z,660
2019-06-28T04:15:24.063Z,676
2019-06-28T04:16:25.465Z,684
2019-06-28T04:17:26.866Z,700
2019-06-28T04:18:28.286Z,728
2019-06-28T04:19:29.687Z,748
2019-06-28T04:20:31.163Z,768
2019-06-28T04:21:32.565Z,784
2019-06-28T04:22:34.051Z,784
2019-06-28T04:23:35.454Z,796
2019-06-28T04:24:36.926Z,816
2019-06-28T04:25:38.327Z,860
2019-06-28T04:26:39.805Z,948
2019-06-28T04:27:41.360Z,968
2019-06-28T04:28:42.687Z,992
2019-06-28T04:29:44.130Z,1072
2019-06-28T04:30:45.582Z,1172
2019-06-28T04:31:46.937Z,1228
2019-06-28T04:32:48.452Z,1228
2019-06-28T04:33:49.953Z,1240
2019-06-28T04:34:51.434Z,1204
2019-06-28T04:35:52.835Z,1128
2019-06-28T04:36:57.570Z,1100
2019-06-28T04:37:55.953Z,1104
2019-06-28T04:38:57.402Z,1096
2019-06-28T04:39:58.825Z,1028
2019-06-28T04:41:00.486Z,1024
2019-06-28T04:42:01.958Z,1016
2019-06-28T04:43:03.291Z,1072
2019-06-28T04:44:04.807Z,1076
2019-06-28T04:45:06.208Z,1056
2019-06-28T04:46:07.612Z,1204
2019-06-28T04:47:09.129Z,1192
2019-06-28T04:48:10.534Z,1292
2019-06-28T04:49:11.938Z,1304
2019-06-28T04:50:13.452Z,1392
2019-06-28T04:51:14.868Z,1504
2019-06-28T04:52:16.268Z,1524
2019-06-28T04:53:17.671Z,1556
2019-06-28T04:54:19.110Z,1568
2019-06-28T04:55:20.523Z,1596
2019-06-28T04:56:21.993Z,1588
2019-06-28T04:57:23.394Z,1516
2019-06-28T04:58:24.873Z,1496
2019-06-28T04:59:26.280Z,1512
2019-06-28T05:00:27.759Z,1544
2019-06-28T05:01:29.167Z,1704
2019-06-28T05:02:30.636Z,1828
2019-06-28T05:03:34.636Z,1916
2019-06-28T05:04:33.510Z,1968
2019-06-28T05:05:34.918Z,2052
2019-06-28T05:06:36.396Z,2376
2019-06-28T05:07:37.802Z,2456
2019-06-28T05:08:39.207Z,2528
2019-06-28T05:09:40.718Z,2672
2019-06-28T05:10:42.122Z,2592
2019-06-28T05:11:43.529Z,2492
2019-06-28T05:12:45.960Z,2584
2019-06-28T05:13:47.363Z,2596
2019-06-28T05:14:48.767Z,2728
2019-06-28T05:15:50.282Z,2744
2019-06-28T05:16:51.722Z,2772
2019-06-28T05:17:53.105Z,2860
2019-06-28T05:18:54.624Z,2816
2019-06-28T05:19:56.020Z,2732
2019-06-28T05:20:57.484Z,2580
2019-06-28T05:21:58.891Z,2492
2019-06-28T05:23:00.291Z,2428
2019-06-28T05:24:01.806Z,2364
2019-06-28T05:25:03.208Z,2568
2019-06-28T05:26:04.619Z,2504
2019-06-28T05:27:06.132Z,2500
2019-06-28T05:28:07.530Z,2408
2019-06-28T05:29:11.002Z,2464
2019-06-28T05:30:10.347Z,2416
2019-06-28T05:31:11.755Z,2348
2019-06-28T05:32:13.227Z,2360
2019-06-28T05:33:14.627Z,2316
2019-06-28T05:34:16.036Z,2172
2019-06-28T05:35:17.550Z,1996
2019-06-28T05:36:18.955Z,2028
2019-06-28T05:37:20.358Z,1996
2019-06-28T05:38:21.871Z,1888
2019-06-28T05:39:23.281Z,1792
2019-06-28T05:40:24.752Z,1780
2019-06-28T05:41:26.189Z,1884
2019-06-28T05:42:27.632Z,1848
2019-06-28T05:43:29.037Z,1856
2019-06-28T05:44:30.512Z,1900
2019-06-28T05:45:31.917Z,1948
2019-06-28T05:46:33.439Z,2024
2019-06-28T05:47:34.769Z,2076
2019-06-28T05:48:36.274Z,2156
2019-06-28T05:49:37.680Z,2076
2019-06-28T05:50:39.154Z,2132
2019-06-28T05:51:40.560Z,2052
2019-06-28T05:52:42.049Z,2044
2019-06-28T05:53:43.461Z,2024
2019-06-28T05:54:44.861Z,1984
2019-06-28T05:55:46.358Z,1984
2019-06-28T05:56:47.762Z,1996
2019-06-28T05:57:49.168Z,2020
2019-06-28T05:58:50.684Z,2060
2019-06-28T05:59:52.091Z,2148
2019-06-28T06:00:55.660Z,2252
2019-06-28T06:01:54.937Z,2260
2019-06-28T06:02:56.333Z,2320
2019-06-28T06:03:57.894Z,2324
2019-06-28T06:04:59.369Z,2412
2019-06-28T06:06:00.728Z,2648
2019-06-28T06:07:02.138Z,3020
2019-06-28T06:08:03.643Z,3024
2019-06-28T06:09:05.096Z,2992
2019-06-28T06:10:06.498Z,3192
2019-06-28T06:11:07.931Z,3052
2019-06-28T06:12:09.725Z,3048
2019-06-28T06:13:11.152Z,3300
2019-06-28T06:14:12.558Z,3872
2019-06-28T06:15:14.033Z,4128
2019-06-28T06:16:15.437Z,3540
2019-06-28T06:17:16.922Z,2644
2019-06-28T06:18:18.320Z,2776
2019-06-28T06:19:19.797Z,2876
2019-06-28T06:20:21.200Z,2960
2019-06-28T06:21:22.689Z,3076
2019-06-28T06:25:02.517Z,3684
2019-06-28T06:26:04.101Z,3916
2019-06-28T06:27:27.838Z,3300
2019-06-28T06:28:27.079Z,3328
2019-06-28T06:29:48.799Z,3528
2019-06-28T06:30:50.175Z,3552
2019-06-28T06:31:51.624Z,3388
2019-06-28T06:32:53.030Z,3208
2019-06-28T06:33:54.435Z,3448
2019-06-28T06:34:55.945Z,3764
2019-06-28T06:35:57.390Z,3744
2019-06-28T06:36:58.812Z,4196
2019-06-28T06:38:00.265Z,4888
2019-06-28T06:39:01.667Z,4400
2019-06-28T06:40:03.119Z,3928
2019-06-28T06:41:04.612Z,3648
2019-06-28T06:42:06.030Z,3468
2019-06-28T06:43:07.582Z,3484
2019-06-28T06:44:09.014Z,3572
2019-06-28T06:45:10.441Z,3472
2019-06-28T06:46:11.937Z,3520
2019-06-28T06:47:13.351Z,3616
2019-06-28T06:48:14.827Z,3644
2019-06-28T06:49:16.230Z,3556
2019-06-28T06:50:17.637Z,3964
2019-06-28T06:51:19.094Z,4512
2019-06-28T06:52:20.497Z,4896
2019-06-28T06:53:21.901Z,5148
2019-06-28T06:54:23.414Z,4988
2019-06-28T06:55:24.821Z,4436
2019-06-28T06:56:27.865Z,4448
2019-06-28T06:57:27.636Z,4508
2019-06-28T06:58:29.039Z,5700
2019-06-28T06:59:30.445Z,7652
2019-06-28T07:00:31.956Z,10388
2019-06-28T07:01:33.364Z,7760
2019-06-28T07:02:34.768Z,4736
2019-06-28T07:03:36.279Z,4280
2019-06-28T07:04:37.694Z,3864
2019-06-28T07:05:39.094Z,3696
2019-06-28T07:06:40.599Z,3752
2019-06-28T07:07:42.017Z,3928
2019-06-28T07:08:43.482Z,4252
2019-06-28T07:09:44.895Z,4324
2019-06-28T07:10:46.359Z,4636
2019-06-28T07:11:47.767Z,4760
2019-06-28T07:12:49.240Z,4984
2019-06-28T07:13:50.641Z,5476
2019-06-28T07:14:55.060Z,4952
2019-06-28T07:15:53.523Z,5104
2019-06-28T07:16:55.001Z,5180
2019-06-28T07:17:56.406Z,5008
2019-06-28T07:18:57.882Z,4732
2019-06-28T07:19:59.292Z,4560
2019-06-28T07:21:00.766Z,4384
2019-06-28T07:22:02.168Z,4428
2019-06-28T07:23:03.645Z,4620
2019-06-28T07:24:05.050Z,5260
2019-06-28T07:25:06.527Z,6072
2019-06-28T07:26:07.937Z,7052
2019-06-28T07:27:09.406Z,7264
2019-06-28T07:28:10.809Z,6484
2019-06-28T07:29:12.286Z,7364
2019-06-28T07:30:13.692Z,6348
2019-06-28T07:31:17.032Z,7300
2019-06-28T07:32:16.557Z,8864
2019-06-28T07:33:18.051Z,9560
2019-06-28T07:34:19.462Z,8616
2019-06-28T07:35:20.872Z,8056
2019-06-28T07:36:22.371Z,8520
2019-06-28T07:37:23.778Z,10088
2019-06-28T07:38:25.189Z,12420
2019-06-28T07:39:26.696Z,12672
2019-06-28T07:40:28.101Z,10540
2019-06-28T07:41:29.583Z,12556
2019-06-28T07:42:32.463Z,10364
2019-06-28T07:43:32.454Z,9532
2019-06-28T07:44:33.873Z,10556
2019-06-28T07:45:35.335Z,12808
2019-06-28T07:46:36.748Z,28704
2019-06-28T07:47:38.217Z,46144
2019-06-28T07:48:39.628Z,39552
2019-06-28T07:49:41.119Z,22272
2019-06-28T07:50:44.344Z,40032
2019-06-28T07:51:43.980Z,76288
2019-06-28T07:52:45.386Z,76768
2019-06-28T07:53:46.860Z,33344
2019-06-28T07:54:48.270Z,80384
2019-06-28T07:55:49.680Z,76640
2019-06-28T07:56:51.183Z,81664
2019-06-28T07:57:52.593Z,78720
2019-06-28T07:58:54.000Z,80480
2019-06-28T07:59:55.506Z,65600
2019-06-28T08:00:56.912Z,20608
2019-06-28T08:01:58.327Z,22080
2019-06-28T08:02:59.824Z,31680
2019-06-28T08:04:01.229Z,67776
2019-06-28T08:05:02.636Z,66080
2019-06-28T08:06:04.143Z,9088
2019-06-28T08:07:05.555Z,61760
2019-06-28T08:08:06.964Z,42528
2019-06-28T08:09:08.469Z,74976
2019-06-28T08:10:09.879Z,29760
2019-06-28T08:11:11.287Z,72096
2019-06-28T08:12:12.786Z,5584
2019-06-28T08:13:14.215Z,6848
2019-06-28T08:14:15.614Z,12544
2019-06-28T08:15:20.141Z,9736
2019-06-28T08:16:19.795Z,5292
2019-06-28T08:17:19.855Z,77856
2019-06-28T08:18:21.431Z,36704
2019-06-28T08:19:22.837Z,5308
2019-06-28T08:20:24.243Z,5248
2019-06-28T08:21:25.765Z,5156
2019-06-28T08:22:27.164Z,5732
2019-06-28T08:23:28.838Z,18496
2019-06-28T08:24:30.244Z,7576
2019-06-28T08:25:31.926Z,7080
2019-06-28T08:26:33.492Z,6172
2019-06-28T08:27:35.008Z,5468
2019-06-28T08:28:36.566Z,5252
2019-06-28T08:29:38.031Z,5088
2019-06-28T08:30:39.446Z,6888
2019-06-28T08:31:40.853Z,4864
2019-06-28T08:32:42.447Z,35680
2019-06-28T08:33:43.884Z,4832
2019-06-28T08:34:45.296Z,4832
2019-06-28T08:35:46.941Z,4764
2019-06-28T08:36:48.367Z,4864
2019-06-28T08:37:52.787Z,4976
2019-06-28T08:38:51.264Z,5004
2019-06-28T08:39:52.669Z,4976
2019-06-28T08:40:54.081Z,4916
2019-06-28T08:41:55.584Z,4748
2019-06-28T08:42:57.171Z,4536
2019-06-28T08:43:58.575Z,4424
2019-06-28T08:45:01.136Z,4348
2019-06-28T08:46:02.700Z,4388
2019-06-28T08:47:04.103Z,4412
2019-06-28T08:48:05.661Z,4444
2019-06-28T08:49:07.210Z,4480
2019-06-28T08:50:11.750Z,4436
2019-06-28T08:51:18.794Z,4412
2019-06-28T08:52:20.222Z,4420
2019-06-28T08:53:21.626Z,4516
2019-06-28T08:54:23.119Z,4580
2019-06-28T08:55:24.516Z,4828
2019-06-28T08:56:25.935Z,5568
2019-06-28T08:59:19.673Z,6720
2019-06-28T08:59:41.150Z,34976
2019-06-28T09:00:39.879Z,73216
2019-06-28T09:01:41.280Z,70048
2019-06-28T09:02:42.762Z,5980
2019-06-28T09:03:44.169Z,4656
2019-06-28T09:04:45.579Z,4380
2019-06-28T09:05:47.149Z,4184
2019-06-28T09:06:48.656Z,4120
2019-06-28T09:07:50.067Z,3976
2019-06-28T09:08:51.571Z,3984
2019-06-28T09:09:52.981Z,8008
2019-06-28T09:10:54.408Z,4076
2019-06-28T09:11:56.030Z,4688
2019-06-28T09:12:57.425Z,5908
2019-06-28T09:13:59.129Z,27296
2019-06-28T09:15:00.597Z,60640
2019-06-28T09:16:02.022Z,76704
2019-06-28T09:17:03.685Z,5692
2019-06-28T09:18:05.084Z,4020
2019-06-28T09:19:06.506Z,4856
2019-06-28T09:20:09.162Z,4492
2019-06-28T09:21:10.567Z,87232
2019-06-28T09:22:12.198Z,4060
2019-06-28T09:23:13.887Z,3956
2019-06-28T09:24:15.294Z,3884
2019-06-28T09:25:16.697Z,3852
2019-06-28T09:26:18.205Z,3800
2019-06-28T09:27:19.672Z,3912
2019-06-28T09:28:21.295Z,4140
2019-06-28T09:29:22.704Z,4112
2019-06-28T09:30:24.299Z,31136
2019-06-28T09:31:25.706Z,27616
2019-06-28T09:32:27.161Z,3740
2019-06-28T09:33:28.572Z,3636
2019-06-28T09:34:30.141Z,3696
2019-06-28T09:35:31.584Z,3368
2019-06-28T09:36:33.229Z,3552
2019-06-28T09:37:34.634Z,3416
2019-06-28T09:38:36.222Z,3416
2019-06-28T09:39:37.643Z,3484
2019-06-28T09:40:39.158Z,3576
2019-06-28T09:41:40.563Z,3448
2019-06-28T09:42:41.971Z,3488
2019-06-28T09:43:43.519Z,3464
2019-06-28T09:44:44.966Z,3544
2019-06-28T09:45:46.365Z,3600
2019-06-28T09:46:48.019Z,3528
2019-06-28T09:47:49.419Z,3496
2019-06-28T09:48:50.913Z,3680
2019-06-28T09:49:52.330Z,3608
2019-06-28T09:50:53.814Z,3636
2019-06-28T09:51:55.213Z,3880
2019-06-28T09:52:56.685Z,3660
2019-06-28T09:53:58.086Z,3940
2019-06-28T09:55:00.591Z,3752
2019-06-28T09:56:01.995Z,3832
2019-06-28T09:57:03.465Z,4224
2019-06-28T09:58:05.117Z,4048
2019-06-28T09:59:06.564Z,4452
2019-06-28T10:00:07.971Z,4860
2019-06-28T10:01:09.642Z,5216
2019-06-28T10:02:11.052Z,4880
2019-06-28T10:03:12.463Z,4144
2019-06-28T10:04:13.962Z,3500
2019-06-28T10:05:15.371Z,3272
2019-06-28T10:06:16.778Z,3512
2019-06-28T10:07:18.300Z,3052
2019-06-28T10:08:19.697Z,3340
2019-06-28T10:09:21.112Z,2996
2019-06-28T10:10:22.521Z,2944
2019-06-28T10:11:23.929Z,2924
2019-06-28T10:12:25.341Z,2916
2019-06-28T10:13:26.840Z,2892
2019-06-28T10:14:28.237Z,2888
2019-06-28T10:15:29.654Z,2832
2019-06-28T10:16:31.149Z,2824
2019-06-28T10:17:32.555Z,2804
2019-06-28T10:18:34.030Z,2764
2019-06-28T10:19:35.437Z,2728
2019-06-28T10:20:36.909Z,2708
2019-06-28T10:21:38.314Z,2724
2019-06-28T10:22:39.775Z,2728
2019-06-28T10:23:41.230Z,2748
2019-06-28T10:24:42.689Z,2700
2019-06-28T10:25:44.094Z,2740
2019-06-28T10:26:45.551Z,2836
2019-06-28T10:27:46.976Z,2788
2019-06-28T10:28:48.433Z,2664
2019-06-28T10:29:49.851Z,2652
2019-06-28T10:30:51.313Z,2608
2019-06-28T10:31:52.717Z,2584
2019-06-28T10:32:54.199Z,2548
2019-06-28T10:33:55.607Z,2508
2019-06-28T10:34:57.074Z,2472
2019-06-28T10:35:58.516Z,2464
2019-06-28T10:37:00.023Z,2452
2019-06-28T10:38:01.466Z,2416
2019-06-28T10:39:02.940Z,2384
2019-06-28T10:40:04.373Z,2368
2019-06-28T10:41:05.821Z,2380
2019-06-28T10:42:07.224Z,2364
2019-06-28T10:43:08.629Z,2356
2019-06-28T10:44:10.142Z,2368
2019-06-28T10:45:11.601Z,2360
2019-06-28T10:46:12.950Z,2360
2019-06-28T10:47:14.463Z,2352
2019-06-28T10:48:15.869Z,2372
2019-06-28T10:49:17.289Z,2376
2019-06-28T10:50:18.786Z,2360
2019-06-28T10:51:20.197Z,2368
2019-06-28T10:52:21.601Z,2424
2019-06-28T10:53:23.106Z,3792
2019-06-28T10:54:24.514Z,3384
2019-06-28T10:55:25.985Z,2276
2019-06-28T10:56:27.946Z,2280
2019-06-28T10:57:28.840Z,2244
2019-06-28T10:58:30.307Z,2244
2019-06-28T10:59:31.734Z,2304
2019-06-28T11:00:33.138Z,2236
2019-06-28T11:01:34.631Z,2248
2019-06-28T11:02:36.037Z,2228
2019-06-28T11:03:37.575Z,2244
2019-06-28T11:04:38.952Z,2224
2019-06-28T11:05:40.424Z,2208
2019-06-28T11:06:41.761Z,2208
2019-06-28T11:07:43.317Z,2200
2019-06-28T11:08:44.720Z,2188
2019-06-28T11:09:46.152Z,2164
2019-06-28T11:10:47.557Z,2124
2019-06-28T11:11:49.082Z,2144
2019-06-28T11:12:50.511Z,2116
2019-06-28T11:13:51.915Z,2084
2019-06-28T11:14:53.364Z,2100
2019-06-28T11:15:54.966Z,2072
2019-06-28T11:16:59.700Z,2056
2019-06-28T11:17:57.779Z,5116
2019-06-28T11:18:59.212Z,2080
2019-06-28T11:20:00.725Z,2044
2019-06-28T11:21:02.160Z,2032
2019-06-28T11:22:03.755Z,2020
2019-06-28T11:23:05.319Z,2008
2019-06-28T11:24:07.327Z,1972
2019-06-28T11:25:08.781Z,156
2019-06-28T11:26:12.164Z,1924
2019-06-28T11:27:11.596Z,1940
2019-06-28T11:28:13.002Z,1908
2019-06-28T11:29:14.451Z,1960
2019-06-28T11:30:15.855Z,1916
2019-06-28T11:31:17.261Z,1876
2019-06-28T11:32:18.765Z,1852
2019-06-28T11:33:21.582Z,1828
2019-06-28T11:34:21.538Z,1820
2019-06-28T11:35:23.135Z,1812
2019-06-28T11:36:24.574Z,1784
2019-06-28T11:37:26.074Z,1756
2019-06-28T11:38:27.609Z,1768
2019-06-28T11:39:29.071Z,1752
2019-06-28T11:40:30.492Z,1740
2019-06-28T11:41:31.899Z,1720
2019-06-28T11:42:33.365Z,1896
2019-06-28T11:43:34.916Z,1872
2019-06-28T11:44:36.328Z,1860
2019-06-28T11:45:37.738Z,1728
2019-06-28T11:46:39.311Z,1832
2019-06-28T11:47:40.714Z,1716
2019-06-28T11:48:43.177Z,1696
2019-06-28T11:49:44.723Z,1684
2019-06-28T11:50:46.131Z,1684
2019-06-28T11:51:47.538Z,1708
2019-06-28T11:52:49.008Z,1716
2019-06-28T11:53:50.553Z,1728
2019-06-28T11:54:51.965Z,1788
2019-06-28T11:55:54.637Z,1764
2019-06-28T11:56:55.966Z,1800
2019-06-28T11:57:57.420Z,1832
2019-06-28T11:58:58.881Z,1812
2019-06-28T12:00:00.314Z,1800
2019-06-28T12:01:01.828Z,1812
2019-06-28T12:02:03.375Z,1760
2019-06-28T12:03:04.844Z,1740
2019-06-28T12:04:06.272Z,1732
2019-06-28T12:05:07.875Z,1744
2019-06-28T12:06:09.331Z,1748
2019-06-28T12:07:10.820Z,1700
2019-06-28T12:08:12.226Z,1860
2019-06-28T12:09:13.760Z,1880
2019-06-28T12:10:15.175Z,1792
2019-06-28T12:11:16.681Z,1836
2019-06-28T12:12:18.084Z,1896
2019-06-28T12:13:19.560Z,1832
2019-06-28T12:14:20.976Z,1740
2019-06-28T12:15:22.376Z,1668
2019-06-28T12:16:23.878Z,1624
2019-06-28T12:17:32.121Z,1580
2019-06-28T12:18:26.666Z,1592
2019-06-28T12:19:28.099Z,1644
2019-06-28T12:20:29.504Z,1656
2019-06-28T12:21:30.911Z,1748
2019-06-28T12:22:32.418Z,1604
2019-06-28T12:23:33.820Z,1764
2019-06-28T12:24:35.223Z,1608
2019-06-28T12:25:36.753Z,1552
2019-06-28T12:26:38.212Z,1536
2019-06-28T12:27:39.626Z,1532
2019-06-28T12:28:41.028Z,1400
2019-06-28T12:29:42.433Z,1400
2019-06-28T12:30:43.946Z,1384
2019-06-28T12:31:45.349Z,1356
2019-06-28T12:32:46.758Z,1392
2019-06-28T12:33:48.263Z,1368
2019-06-28T12:34:49.678Z,1632
2019-06-28T12:35:51.150Z,1400
2019-06-28T12:36:52.550Z,1412
2019-06-28T12:37:54.028Z,1556
2019-06-28T12:38:55.433Z,1576
2019-06-28T12:39:56.908Z,1652
2019-06-28T12:40:58.326Z,1540
2019-06-28T12:41:59.787Z,1660
2019-06-28T12:43:01.248Z,1648
2019-06-28T12:44:02.605Z,1780
2019-06-28T12:45:04.236Z,1620
2019-06-28T12:46:05.641Z,1940
2019-06-28T12:47:07.051Z,1524
2019-06-28T12:48:08.533Z,1744
2019-06-28T12:49:09.967Z,1656
2019-06-28T12:50:11.374Z,1604
2019-06-28T12:51:12.856Z,2868
2019-06-28T12:52:14.260Z,1752
2019-06-28T12:53:15.679Z,1840
2019-06-28T12:54:17.178Z,1952
2019-06-28T12:55:18.584Z,1956
2019-06-28T12:56:20.075Z,2704
2019-06-28T12:57:21.473Z,2112
2019-06-28T12:58:22.940Z,3112
2019-06-28T12:59:24.342Z,2492
2019-06-28T13:00:25.857Z,2188
2019-06-28T13:01:27.209Z,2248
2019-06-28T13:02:28.550Z,2856
2019-06-28T13:03:29.956Z,3312
2019-06-28T13:04:31.378Z,3440
2019-06-28T13:05:32.783Z,3548
2019-06-28T13:06:34.258Z,3048
2019-06-28T13:07:35.662Z,2904
2019-06-28T13:08:37.139Z,2360
2019-06-28T13:09:38.544Z,2132
2019-06-28T13:10:41.435Z,2112
2019-06-28T13:11:41.396Z,1772
2019-06-28T13:12:42.900Z,1636
2019-06-28T13:13:44.305Z,1552
2019-06-28T13:14:45.721Z,1464
2019-06-28T13:15:47.221Z,1388
2019-06-28T13:16:48.626Z,1312
2019-06-28T13:18:04.436Z,1228
2019-06-28T13:18:51.443Z,1168
2019-06-28T13:19:52.846Z,1152
2019-06-28T13:20:54.252Z,1148
2019-06-28T13:21:55.763Z,1156
2019-06-28T13:23:07.504Z,1120
2019-06-28T13:23:58.546Z,1100
2019-06-28T13:24:59.980Z,1060
2019-06-28T13:26:01.411Z,1032
2019-06-28T13:27:02.801Z,1008
2019-06-28T13:28:04.299Z,988
2019-06-28T13:29:05.704Z,980
2019-06-28T13:30:07.112Z,988
2019-06-28T13:31:20.006Z,980
2019-06-28T13:32:20.862Z,964
2019-06-28T13:33:22.260Z,960
2019-06-28T13:34:23.801Z,960
2019-06-28T13:35:27.459Z,960
2019-06-28T13:36:28.836Z,976
2019-06-28T13:37:30.234Z,932
2019-06-28T13:38:31.644Z,936
2019-06-28T13:39:33.153Z,940
2019-06-28T13:40:35.200Z,948
2019-06-28T13:41:36.658Z,924
2019-06-28T13:42:38.074Z,920
2019-06-28T13:43:39.536Z,924
2019-06-28T13:44:40.933Z,928
2019-06-28T13:45:42.410Z,932
2019-06-28T13:46:43.813Z,912
2019-06-28T13:47:45.321Z,912
2019-06-28T13:48:46.724Z,904
2019-06-28T13:49:48.171Z,908
2019-06-28T13:50:49.574Z,904
2019-06-28T13:51:51.061Z,904
2019-06-28T13:52:52.462Z,904
2019-06-28T13:53:53.931Z,896
2019-06-28T13:54:55.337Z,896
2019-06-28T13:55:56.813Z,892
2019-06-28T13:56:58.218Z,884
2019-06-28T13:57:59.694Z,888
2019-06-28T13:59:01.098Z,884
2019-06-28T14:00:02.541Z,876
2019-06-28T14:01:04.014Z,872
2019-06-28T14:02:05.423Z,868
2019-06-28T14:03:06.842Z,864
2019-06-28T14:04:08.359Z,860
2019-06-28T14:05:09.740Z,860
2019-06-28T14:06:11.161Z,856
2019-06-28T14:07:12.662Z,852
2019-06-28T14:08:17.609Z,844
2019-06-28T14:09:15.442Z,844
2019-06-28T14:10:16.921Z,836
2019-06-28T14:11:18.332Z,796
2019-06-28T14:12:19.761Z,828
2019-06-28T14:13:21.162Z,828
2019-06-28T14:14:22.642Z,820
2019-06-28T14:15:24.054Z,816
2019-06-28T14:16:25.450Z,816
2019-06-28T14:17:26.960Z,816
2019-06-28T14:18:38.212Z,812
2019-06-28T14:19:29.731Z,808
2019-06-28T14:20:31.195Z,808
2019-06-28T14:21:32.602Z,804
2019-06-28T14:22:34.062Z,800
2019-06-28T14:23:35.522Z,792
2019-06-28T14:24:36.943Z,780
2019-06-28T14:25:38.350Z,784
2019-06-28T14:26:39.822Z,784
2019-06-28T14:27:41.236Z,784
2019-06-28T14:28:42.704Z,796
2019-06-28T14:29:44.120Z,788
2019-06-28T14:30:45.606Z,788
2019-06-28T14:31:47.094Z,788
2019-06-28T14:32:48.467Z,772
2019-06-28T14:33:49.881Z,772
2019-06-28T14:34:51.347Z,764
2019-06-28T14:35:52.755Z,764
2019-06-28T14:36:54.234Z,752
2019-06-28T14:37:55.640Z,748
2019-06-28T14:38:57.109Z,744
2019-06-28T14:39:58.514Z,744
2019-06-28T14:40:59.915Z,760
2019-06-28T14:42:01.431Z,744
2019-06-28T14:43:02.842Z,720
2019-06-28T14:44:04.244Z,720
2019-06-28T14:45:05.753Z,716
2019-06-28T14:46:07.162Z,716
2019-06-28T14:47:08.632Z,716
2019-06-28T14:48:10.039Z,720
2019-06-28T14:49:11.517Z,716
2019-06-28T14:50:12.936Z,712
2019-06-28T14:51:14.396Z,708
2019-06-28T14:52:15.798Z,708
2019-06-28T14:53:17.277Z,716
2019-06-28T14:54:18.680Z,708
2019-06-28T14:55:20.198Z,704
2019-06-28T14:56:21.600Z,716
2019-06-28T14:57:23.044Z,700
2019-06-28T14:58:24.464Z,704
2019-06-28T14:59:25.922Z,704
2019-06-28T15:00:27.322Z,712
2019-06-28T15:01:28.726Z,704
2019-06-28T15:02:30.241Z,708
2019-06-28T15:03:31.643Z,700
2019-06-28T15:04:33.047Z,696
2019-06-28T15:05:34.560Z,704
2019-06-28T15:06:35.966Z,704
2019-06-28T15:07:37.440Z,692
2019-06-28T15:08:38.847Z,692
2019-06-28T15:09:40.319Z,692
2019-06-28T15:10:41.725Z,684
2019-06-28T15:11:43.206Z,692
2019-06-28T15:12:44.634Z,680
2019-06-28T15:13:46.083Z,680
2019-06-28T15:14:47.488Z,676
2019-06-28T15:15:48.973Z,668
2019-06-28T15:16:51.059Z,672
2019-06-28T15:17:52.559Z,676
2019-06-28T15:19:07.413Z,680
2019-06-28T15:19:55.442Z,676
2019-06-28T15:20:56.849Z,680
2019-06-28T15:21:58.324Z,680
2019-06-28T15:22:59.734Z,680
2019-06-28T15:24:01.205Z,676
2019-06-28T15:25:02.607Z,676
2019-06-28T15:26:04.097Z,692
2019-06-28T15:27:05.494Z,676
2019-06-28T15:28:06.969Z,680
2019-06-28T15:29:08.369Z,668
2019-06-28T15:30:09.847Z,668
2019-06-28T15:31:11.251Z,672
2019-06-28T15:32:12.813Z,668
2019-06-28T15:33:14.287Z,672
2019-06-28T15:34:15.690Z,672
2019-06-28T15:35:17.096Z,668
2019-06-28T15:36:18.594Z,672
2019-06-28T15:37:19.997Z,664
2019-06-28T15:38:22.020Z,668
2019-06-28T15:39:23.446Z,664
2019-06-28T15:40:24.881Z,664
2019-06-28T15:41:26.286Z,660
2019-06-28T15:42:27.708Z,660
2019-06-28T15:43:29.188Z,660
2019-06-28T15:44:30.596Z,652
2019-06-28T15:45:31.994Z,656
2019-06-28T15:46:33.512Z,648
2019-06-28T15:47:34.908Z,648
2019-06-28T15:48:36.316Z,640
2019-06-28T15:49:37.831Z,640
2019-06-28T15:50:39.236Z,644
2019-06-28T15:51:40.634Z,640
2019-06-28T15:52:42.075Z,640
2019-06-28T15:53:43.484Z,640
2019-06-28T15:54:44.934Z,632
2019-06-28T15:55:46.370Z,632
2019-06-28T15:56:47.816Z,632
2019-06-28T15:57:49.211Z,636
2019-06-28T15:58:50.691Z,636
2019-06-28T15:59:52.098Z,632
2019-06-28T16:00:53.576Z,628
2019-06-28T16:01:54.978Z,632
2019-06-28T16:02:56.459Z,624
2019-06-28T16:03:58.500Z,624
2019-06-28T16:04:59.984Z,632
2019-06-28T16:06:01.370Z,620
2019-06-28T16:07:02.832Z,644
2019-06-28T16:08:04.242Z,616
2019-06-28T16:09:05.717Z,620
2019-06-28T16:10:07.139Z,624
2019-06-28T16:11:08.593Z,620
2019-06-28T16:12:10.040Z,616
2019-06-28T16:13:11.473Z,616
2019-06-28T16:14:12.874Z,616
2019-06-28T16:15:14.375Z,608
2019-06-28T16:16:15.774Z,612
2019-06-28T16:17:17.236Z,612
2019-06-28T16:18:18.646Z,616
2019-06-28T16:19:20.144Z,608
2019-06-28T16:20:21.549Z,604
2019-06-28T16:21:23.025Z,616
2019-06-28T16:22:24.429Z,612
2019-06-28T16:23:25.850Z,612
2019-06-28T16:24:27.339Z,604
2019-06-28T16:25:28.734Z,612
2019-06-28T16:26:30.144Z,612
2019-06-28T16:27:31.663Z,608
2019-06-28T16:28:33.077Z,608
2019-06-28T16:29:34.481Z,612
2019-06-28T16:30:35.963Z,604
2019-06-28T16:31:37.363Z,608
2019-06-28T16:32:38.769Z,608
2019-06-28T16:33:40.290Z,596
2019-06-28T16:34:41.711Z,600
2019-06-28T16:35:43.223Z,604
2019-06-28T16:36:44.879Z,604
2019-06-28T16:37:46.353Z,596
2019-06-28T16:38:47.760Z,600
2019-06-28T16:39:49.234Z,596
2019-06-28T16:40:50.665Z,596
2019-06-28T16:41:52.119Z,596
2019-06-28T16:42:53.517Z,596
2019-06-28T16:43:54.915Z,584
2019-06-28T16:44:56.661Z,592
2019-06-28T16:45:58.065Z,608
2019-06-28T16:46:59.469Z,588
2019-06-28T16:48:00.965Z,588
2019-06-28T16:49:02.365Z,588
2019-06-28T16:50:03.771Z,592
2019-06-28T16:51:05.285Z,592
2019-06-28T16:52:06.686Z,588
2019-06-28T16:53:08.090Z,580
2019-06-28T16:54:09.608Z,588
2019-06-28T16:55:11.008Z,584
2019-06-28T16:56:12.407Z,576
2019-06-28T16:57:13.826Z,576
2019-06-28T16:58:15.225Z,580
2019-06-28T16:59:16.628Z,572
2019-06-28T17:00:18.144Z,580
2019-06-28T17:01:19.579Z,576
2019-06-28T17:02:21.087Z,572
2019-06-28T17:03:22.492Z,564
2019-06-28T17:04:23.895Z,568
2019-06-28T17:05:25.416Z,568
2019-06-28T17:06:26.938Z,580
2019-06-28T17:07:28.386Z,568
2019-06-28T17:08:29.787Z,568
2019-06-28T17:09:31.213Z,564
2019-06-28T17:10:32.623Z,564
2019-06-28T17:11:34.093Z,580
2019-06-28T17:12:35.583Z,564
2019-06-28T17:13:36.970Z,568
2019-06-28T17:14:38.414Z,560
2019-06-28T17:15:39.830Z,568
2019-06-28T17:16:41.224Z,564
2019-06-28T17:17:42.734Z,548
2019-06-28T17:18:44.137Z,552
2019-06-28T17:19:45.613Z,560
2019-06-28T17:20:47.019Z,552
2019-06-28T17:21:48.499Z,556
2019-06-28T17:22:49.905Z,560
2019-06-28T17:23:51.379Z,552
2019-06-28T17:24:52.797Z,552
2019-06-28T17:25:54.260Z,552
2019-06-28T17:26:55.729Z,544
2019-06-28T17:27:57.243Z,544
2019-06-28T17:28:58.649Z,552
2019-06-28T17:30:00.128Z,544
2019-06-28T17:31:02.364Z,540
2019-06-28T17:32:03.821Z,540
2019-06-28T17:33:05.229Z,576
2019-06-28T17:34:06.711Z,544
2019-06-28T17:35:11.030Z,552
2019-06-28T17:36:12.495Z,536
2019-06-28T17:37:10.947Z,540
2019-06-28T17:38:12.348Z,536
2019-06-28T17:39:13.805Z,536
2019-06-28T17:40:15.207Z,532
2019-06-28T17:41:16.682Z,528
2019-06-28T17:42:18.125Z,532